Bookmark and Share
Track history (hours):
 

Danica Four

Last reported at 2012-Jul-27 17:33 UTC. Time now 2014-Apr-18 03:11 UTC.
Position N 27°43' W 015°25'.
Warning: this ship's position is years out of date!

Length 61 m; draft 3.3 m.

Type: Ship (hazmat cat D). MMSI: 219206000.

NotesDate/timePositionNaut miles runAvg speedWind from/ knotsBaromVisibWave heightAir tempDewpointWater temp
2012-Jul-27 17:33N 27°43' W 015°25'9 8.9
2012-Jul-27 16:33N 27°49' W 015°18'9 9.4
2012-Jul-27 15:33N 27°58' W 015°20'9 9.1
2012-Jul-27 14:33N 28°07' W 015°24'2 2.4
2012-Jul-27 13:33N 28°09' W 015°25'0 0.0
2012-Jul-27 12:33N 28°09' W 015°25'0 0.0
2012-Jul-27 11:33N 28°09' W 015°25'0 0.0
2012-Jul-27 10:36N 28°09' W 015°25'0 0.0
2012-Jul-27 09:33N 28°09' W 015°25'0 0.0
2012-Jul-27 08:33N 28°09' W 015°25'0 0.0
2012-Jul-27 07:33N 28°09' W 015°25'0 0.0
2012-Jul-27 06:33N 28°09' W 015°25'0 0.0
2012-Jul-27 05:33N 28°09' W 015°25'0 0.0
2012-Jul-27 04:36N 28°09' W 015°25'0 0.0
2012-Jul-27 03:33N 28°09' W 015°25'0 0.0
2012-Jul-27 02:33N 28°09' W 015°25'0 0.0
2012-Jul-27 01:33N 28°09' W 015°25'0 0.0
2012-Jul-27 00:30N 28°09' W 015°25'0 0.0
2012-Jul-26 23:33N 28°09' W 015°25'0 0.0
2012-Jul-26 22:33N 28°09' W 015°25'0 0.0
2012-Jul-26 21:33N 28°09' W 015°25'0 0.0
2012-Jul-26 20:33N 28°09' W 015°25'0 0.0
2012-Jul-26 19:33N 28°09' W 015°25'0 0.0
2012-Jul-26 18:27N 28°09' W 015°25'0 0.0
2012-Jul-26 17:33N 28°09' W 015°25'0 0.0
2012-Jul-26 16:33N 28°09' W 015°25'0 0.0
2012-Jul-26 15:33N 28°09' W 015°25'0 0.0
2012-Jul-26 14:33N 28°09' W 015°25'0 0.0
2012-Jul-26 13:31N 28°09' W 015°25'0 0.0
2012-Jul-26 12:31N 28°09' W 015°25'0 0.0
2012-Jul-26 11:33N 28°09' W 015°25'0 0.0
2012-Jul-26 10:37N 28°09' W 015°25'0 0.0
2012-Jul-26 09:33N 28°09' W 015°25'0 0.0
2012-Jul-26 08:33N 28°09' W 015°25'0 0.0
2012-Jul-26 07:33N 28°09' W 015°25'0 0.0
2012-Jul-26 06:31N 28°09' W 015°25'0 0.0
2012-Jul-26 05:33N 28°09' W 015°25'0 0.0
2012-Jul-26 04:37N 28°09' W 015°25'0 0.0
2012-Jul-26 03:33N 28°09' W 015°25'0 0.0
2012-Jul-26 02:33N 28°09' W 015°25'0 0.0
2012-Jul-26 01:33N 28°09' W 015°25'0 0.0
2012-Jul-26 00:33N 28°09' W 015°25'0 0.0
2012-Jul-25 23:33N 28°09' W 015°25'0 0.0
2012-Jul-25 22:33N 28°09' W 015°25'0 0.0
2012-Jul-25 21:33N 28°09' W 015°25'0 0.0
2012-Jul-25 20:32N 28°09' W 015°25'0 0.0
2012-Jul-25 19:33N 28°09' W 015°25'0 0.0
2012-Jul-25 18:33N 28°09' W 015°25'0 0.0
2012-Jul-25 17:33N 28°09' W 015°25'0 0.0
2012-Jul-25 16:33N 28°09' W 015°25'0 0.0
2012-Jul-25 15:33N 28°09' W 015°25'0 0.0
2012-Jul-25 08:33N 28°09' W 015°25'0 0.0
2012-Jul-25 07:27N 28°09' W 015°25'0 0.1
2012-Jul-25 06:33N 28°09' W 015°25'3 3.5
2012-Jul-25 05:33N 28°06' W 015°23'4 4.0
2012-Jul-25 04:37N 28°02' W 015°21'3 2.7
2012-Jul-25 03:33N 27°60' W 015°20'2 2.2
2012-Jul-25 02:33N 27°58' W 015°19'3 2.6
2012-Jul-25 01:33N 27°56' W 015°17'3 3.0
2012-Jul-25 00:33N 27°53' W 015°16'3 3.4
2012-Jul-24 23:33N 27°50' W 015°14'3 2.7
2012-Jul-24 22:33N 27°47' W 015°15'3 3.0
2012-Jul-24 21:33N 27°44' W 015°16'3 2.9
2012-Jul-24 20:32N 27°41' W 015°17'  

Dump ship's entire track history

sailing weather and tide predictions

Danica Four — OUJE2 — position and weather